Time;durP1;ratioP1;P1;durP2;ratioP2;P2;SDS_P1;SDS_P2;PMS_P1;PMS_P2;Temp;Humidity;BMP_temperature;BMP_pressure;BME280_temperature;BME280_humidity;BME280_pressure;Samples;Min_cycle;Max_cycle;Signal;HPM_P1;HPM_P2
2022/04/10 00:00:22;;;;;;;29.88;9.10;;;;;;;1.11;100.00;101824.00;4989342;28;20080;-42
2022/04/10 00:02:48;;;;;;;26.45;8.95;;;;;;;1.10;100.00;101822.31;5018596;28;20021;-43
2022/04/10 00:05:13;;;;;;;33.03;8.82;;;;;;;1.08;100.00;101829.41;5018766;28;20025;-45
2022/04/10 00:07:39;;;;;;;25.92;8.93;;;;;;;1.07;100.00;101824.22;5018405;28;20429;-42
2022/04/10 00:10:05;;;;;;;28.65;8.10;;;;;;;1.05;100.00;101824.31;5019781;28;20034;-41
2022/04/10 00:12:33;;;;;;;27.40;8.48;;;;;;;1.03;100.00;101826.16;5020406;28;20108;-43
2022/04/10 00:14:58;;;;;;;27.92;7.78;;;;;;;1.02;100.00;101828.84;5019566;28;20084;-43
2022/04/10 00:17:24;;;;;;;37.50;8.57;;;;;;;1.02;100.00;101824.47;5018528;28;20025;-40
2022/04/10 00:19:49;;;;;;;32.35;8.20;;;;;;;1.02;100.00;101826.22;5020831;28;20017;-41
2022/04/10 00:22:14;;;;;;;23.38;8.20;;;;;;;1.02;100.00;101834.13;5022369;28;20036;-41
2022/04/10 00:24:40;;;;;;;32.05;8.93;;;;;;;1.01;100.00;101828.00;5022823;28;20132;-42
2022/04/10 00:27:06;;;;;;;22.95;7.85;;;;;;;0.99;100.00;101829.88;5022993;28;20778;-42
2022/04/10 00:29:32;;;;;;;33.45;8.40;;;;;;;0.99;100.00;101823.78;5023222;28;20029;-42
2022/04/10 00:31:57;;;;;;;24.48;8.57;;;;;;;1.00;100.00;101826.31;5022611;28;20483;-45
2022/04/10 00:34:22;;;;;;;29.05;8.13;;;;;;;0.99;100.00;101829.03;5020379;28;20813;-41
2022/04/10 00:36:48;;;;;;;37.33;8.65;;;;;;;0.98;100.00;101824.69;5022150;28;20513;-40
2022/04/10 00:39:13;;;;;;;25.58;8.95;;;;;;;0.97;100.00;101822.97;5022514;28;20599;-41
2022/04/10 00:41:38;;;;;;;25.90;8.55;;;;;;;0.97;100.00;101821.22;5022763;28;20075;-42
2022/04/10 00:44:06;;;;;;;23.50;8.48;;;;;;;0.94;100.00;101813.47;5023026;28;20385;-43
2022/04/10 00:46:32;;;;;;;30.17;9.18;;;;;;;0.96;100.00;101806.34;5023430;28;20033;-43
2022/04/10 00:48:58;;;;;;;31.30;9.43;;;;;;;0.98;100.00;101819.41;5020909;28;20479;-43
2022/04/10 00:51:43;;;;;;;40.17;9.43;;;;;;;0.98;100.00;101817.63;5021226;28;20137;-42
2022/04/10 00:54:21;;;;;;;27.77;8.73;;;;;;;0.97;100.00;101815.06;5013879;28;20036;-43
2022/04/10 00:56:47;;;;;;;28.45;8.48;;;;;;;0.92;100.00;101813.53;5023205;28;20103;-43
2022/04/10 00:59:13;;;;;;;27.85;8.70;;;;;;;0.89;100.00;101811.03;5022209;28;20045;-42
2022/04/10 01:01:44;;;;;;;38.75;9.18;;;;;;;0.88;100.00;101809.38;5021832;28;20109;-44
2022/04/10 01:04:11;;;;;;;31.80;8.25;;;;;;;0.84;100.00;101817.47;4991912;28;20037;-41
2022/04/10 01:06:37;;;;;;;32.60;9.20;;;;;;;0.84;100.00;101810.41;5002547;28;20413;-44
2022/04/10 01:09:05;;;;;;;37.50;9.15;;;;;;;0.83;100.00;101810.50;5022090;28;20385;-43
2022/04/10 01:11:33;;;;;;;41.13;9.20;;;;;;;0.83;100.00;101810.50;5022846;28;20087;-41
2022/04/10 01:13:59;;;;;;;28.02;9.27;;;;;;;0.80;100.00;101808.88;5022557;28;20122;-42
2022/04/10 01:16:24;;;;;;;24.20;9.13;;;;;;;0.79;100.00;101814.22;5022545;28;20430;-42
2022/04/10 01:18:51;;;;;;;33.88;9.52;;;;;;;0.80;100.00;101813.25;5019404;28;20483;-43
2022/04/10 01:21:23;;;;;;;29.48;8.98;;;;;;;0.78;100.00;101809.88;5021659;28;20033;-47
2022/04/10 01:23:49;;;;;;;23.40;8.80;;;;;;;0.79;100.00;101812.41;5022167;28;20056;-41
2022/04/10 01:26:14;;;;;;;26.23;8.43;;;;;;;0.79;100.00;101814.22;5021490;28;20116;-42
2022/04/10 01:28:55;;;;;;;37.67;9.48;;;;;;;0.79;100.00;101817.69;5021272;28;20033;-42
2022/04/10 01:31:21;;;;;;;28.50;8.80;;;;;;;0.79;100.00;101816.84;5021135;28;20488;-43
2022/04/10 01:33:46;;;;;;;41.83;8.75;;;;;;;0.77;100.00;101822.16;5019567;28;20086;-42
2022/04/10 01:36:12;;;;;;;23.08;9.18;;;;;;;0.72;100.00;101821.53;5021376;28;20451;-42
2022/04/10 01:38:38;;;;;;;45.58;10.27;;;;;;;0.69;100.00;101821.69;5021015;28;20096;-46
2022/04/10 01:41:03;;;;;;;39.05;9.48;;;;;;;0.67;100.00;101820.91;5021708;28;20030;-44
2022/04/10 01:43:28;;;;;;;30.27;8.95;;;;;;;0.64;100.00;101824.50;5020622;28;20061;-43
2022/04/10 01:45:53;;;;;;;30.88;9.18;;;;;;;0.61;100.00;101822.06;5021971;28;20384;-44
2022/04/10 01:48:19;;;;;;;24.52;9.82;;;;;;;0.61;100.00;101827.31;5018849;28;20033;-43
2022/04/10 01:50:44;;;;;;;24.45;8.80;;;;;;;0.56;100.00;101826.66;5020402;28;20065;-42
2022/04/10 01:53:09;;;;;;;33.88;9.15;;;;;;;0.56;100.00;101831.91;5021231;28;20321;-46
2022/04/10 01:55:35;;;;;;;23.80;9.25;;;;;;;0.55;100.00;101832.84;5021749;28;20040;-42
2022/04/10 01:58:00;;;;;;;29.02;9.55;;;;;;;0.53;100.00;101835.53;5021817;28;20037;-43
2022/04/10 02:00:25;;;;;;;29.17;8.70;;;;;;;0.52;100.00;101839.09;4999866;28;20437;-41
2022/04/10 02:02:50;;;;;;;37.92;9.93;;;;;;;0.50;100.00;101835.69;5020587;28;20037;-41
2022/04/10 02:05:16;;;;;;;32.78;10.00;;;;;;;0.48;100.00;101847.22;5020990;28;20488;-43
2022/04/10 02:07:41;;;;;;;39.90;9.85;;;;;;;0.47;100.00;101848.97;5019966;28;20112;-44
2022/04/10 02:10:07;;;;;;;25.73;9.63;;;;;;;0.47;100.00;101842.88;5020051;28;20496;-41
2022/04/10 02:12:33;;;;;;;28.38;9.32;;;;;;;0.50;100.00;101846.19;5021528;28;20112;-44
2022/04/10 02:14:59;;;;;;;27.58;8.93;;;;;;;0.48;100.00;101836.69;5021473;28;20061;-43
2022/04/10 02:17:25;;;;;;;24.60;8.45;;;;;;;0.48;100.00;101842.78;5001883;28;20051;-43
2022/04/10 02:19:50;;;;;;;25.50;9.77;;;;;;;0.44;100.00;101840.38;5019667;28;20033;-43
2022/04/10 02:22:15;;;;;;;33.20;9.40;;;;;;;0.46;100.00;101843.78;5020745;28;20353;-43
2022/04/10 02:24:40;;;;;;;29.02;9.25;;;;;;;0.44;100.00;101836.00;5020501;28;20038;-42
2022/04/10 02:27:06;;;;;;;30.42;9.73;;;;;;;0.44;100.00;101838.63;5021005;28;20037;-42
2022/04/10 02:29:31;;;;;;;23.02;8.55;;;;;;;0.44;100.00;101841.25;5020706;28;20036;-43
2022/04/10 02:31:56;;;;;;;28.20;9.45;;;;;;;0.43;100.00;101841.31;5020066;28;20372;-43
2022/04/10 02:34:21;;;;;;;30.08;9.55;;;;;;;0.43;100.00;101849.19;5019005;28;20022;-41
2022/04/10 02:36:47;;;;;;;29.75;9.40;;;;;;;0.43;100.00;101847.41;5019854;28;20072;-42
2022/04/10 02:39:12;;;;;;;28.80;9.63;;;;;;;0.45;100.00;101840.31;5020667;28;20015;-42
2022/04/10 02:41:37;;;;;;;36.50;9.80;;;;;;;0.46;100.00;101842.03;5017845;28;20052;-43
2022/04/10 02:44:03;;;;;;;28.70;9.15;;;;;;;0.46;100.00;101842.03;5020946;28;20053;-42
2022/04/10 02:46:28;;;;;;;29.75;9.57;;;;;;;0.47;100.00;101848.97;5021131;28;20028;-41
2022/04/10 02:48:53;;;;;;;31.30;8.65;;;;;;;0.44;100.00;101853.50;5018118;28;20032;-40
2022/04/10 02:51:19;;;;;;;22.25;10.07;;;;;;;0.46;100.00;101849.03;5001568;28;20041;-40
2022/04/10 02:53:44;;;;;;;23.20;9.30;;;;;;;0.46;100.00;101849.03;5019724;28;20476;-42
2022/04/10 02:56:09;;;;;;;27.52;8.88;;;;;;;0.46;100.00;101856.91;5020256;28;20091;-42
2022/04/10 02:58:34;;;;;;;24.02;9.18;;;;;;;0.44;100.00;101850.88;5019756;28;20353;-40
2022/04/10 03:01:00;;;;;;;25.83;9.07;;;;;;;0.46;100.00;101856.91;5020255;28;20029;-42
2022/04/10 03:03:25;;;;;;;34.72;9.98;;;;;;;0.44;100.00;101859.63;5017756;28;20040;-43
2022/04/10 03:05:50;;;;;;;35.08;9.48;;;;;;;0.46;100.00;101859.53;5019618;28;20718;-41
2022/04/10 03:08:17;;;;;;;25.02;9.85;;;;;;;0.45;100.00;101857.84;5019778;28;20574;-43
2022/04/10 03:10:43;;;;;;;37.50;10.18;;;;;;;0.44;100.00;101872.78;5019610;28;20104;-42
2022/04/10 03:13:08;;;;;;;27.60;9.43;;;;;;;0.43;100.00;101862.34;5019189;28;20117;-42
2022/04/10 03:15:33;;;;;;;28.58;9.57;;;;;;;0.43;100.00;101873.69;5019674;28;20017;-41
2022/04/10 03:17:59;;;;;;;35.35;10.07;;;;;;;0.41;100.00;101870.28;5017160;28;20025;-41
2022/04/10 03:20:24;;;;;;;32.05;10.13;;;;;;;0.38;100.00;101856.44;5019636;28;20419;-43
2022/04/10 03:22:49;;;;;;;28.60;10.68;;;;;;;0.39;100.00;101864.25;5017975;28;20049;-42
2022/04/10 03:25:15;;;;;;;27.20;10.55;;;;;;;0.39;100.00;101871.25;5020038;28;20151;-43
2022/04/10 03:27:40;;;;;;;27.35;10.63;;;;;;;0.38;100.00;101869.56;5017540;28;20099;-42
2022/04/10 03:30:06;;;;;;;32.85;10.65;;;;;;;0.35;100.00;101866.16;5019306;28;20108;-42
2022/04/10 03:32:32;;;;;;;31.10;11.73;;;;;;;0.35;100.00;101868.78;5019601;28;20477;-42
2022/04/10 03:34:57;;;;;;;32.20;10.35;;;;;;;0.31;100.00;101874.25;5017599;28;20036;-39
2022/04/10 03:37:22;;;;;;;36.05;11.63;;;;;;;0.31;100.00;101877.72;5018709;28;20277;-41
2022/04/10 03:39:47;;;;;;;44.90;11.77;;;;;;;0.32;100.00;101882.06;5019408;28;20034;-42
2022/04/10 03:42:13;;;;;;;32.15;11.20;;;;;;;0.32;100.00;101882.06;5019662;28;20086;-43
2022/04/10 03:44:38;;;;;;;35.03;11.43;;;;;;;0.28;100.00;101875.22;5018849;28;20052;-41
2022/04/10 03:47:04;;;;;;;34.05;10.75;;;;;;;0.29;100.00;101876.06;5018135;28;20449;-40
2022/04/10 03:49:29;;;;;;;43.47;12.02;;;;;;;0.28;100.00;101879.66;4996030;28;20030;-42
2022/04/10 03:51:54;;;;;;;42.65;12.45;;;;;;;0.28;100.00;101884.91;4977885;28;20836;-43
2022/04/10 03:54:19;;;;;;;29.48;12.48;;;;;;;0.23;100.00;101885.09;4982289;28;20096;-42
2022/04/10 03:56:45;;;;;;;28.38;12.27;;;;;;;0.25;100.00;101891.13;4984229;28;20034;-42
2022/04/10 03:59:10;;;;;;;39.88;13.20;;;;;;;0.24;100.00;101886.81;4991310;28;20497;-43
2022/04/10 04:01:35;;;;;;;40.65;12.27;;;;;;;0.24;100.00;101886.81;5003541;28;20034;-42
2022/04/10 04:04:00;;;;;;;37.85;12.50;;;;;;;0.23;100.00;101887.72;5001791;28;20028;-42
2022/04/10 04:06:26;;;;;;;36.85;13.40;;;;;;;0.23;100.00;101887.72;5003894;28;20021;-42
2022/04/10 04:08:51;;;;;;;31.33;12.77;;;;;;;0.24;100.00;101892.06;5002603;28;20473;-43
2022/04/10 04:11:16;;;;;;;40.38;12.68;;;;;;;0.23;100.00;101890.34;5003423;28;20033;-40
2022/04/10 04:13:41;;;;;;;40.20;12.05;;;;;;;0.23;100.00;101900.84;5003220;28;20017;-42
2022/04/10 04:16:08;;;;;;;36.20;13.23;;;;;;;0.18;100.00;101897.59;5003683;28;20084;-43
2022/04/10 04:18:34;;;;;;;30.13;13.07;;;;;;;0.14;100.00;101902.13;5001281;28;20426;-40
2022/04/10 04:20:59;;;;;;;32.38;12.80;;;;;;;0.13;100.00;101900.41;5003124;28;20804;-41
2022/04/10 04:23:24;;;;;;;35.88;13.27;;;;;;;0.15;100.00;101902.97;5003199;28;20120;-41
2022/04/10 04:25:50;;;;;;;37.28;13.23;;;;;;;0.12;100.00;101906.59;5003492;28;20463;-40
2022/04/10 04:28:15;;;;;;;38.45;13.25;;;;;;;0.12;100.00;101900.47;5003476;28;20060;-42
2022/04/10 04:30:40;;;;;;;39.47;14.13;;;;;;;0.10;100.00;101902.31;5003119;28;20065;-40
2022/04/10 04:33:05;;;;;;;39.47;13.70;;;;;;;0.06;100.00;101906.00;5000979;28;20014;-42
2022/04/10 04:35:31;;;;;;;32.30;13.20;;;;;;;0.08;100.00;101910.25;5003775;28;20049;-39
2022/04/10 04:37:57;;;;;;;37.75;13.52;;;;;;;0.10;100.00;101907.56;5002190;28;20551;-43
2022/04/10 04:40:23;;;;;;;37.83;13.88;;;;;;;0.09;100.00;101903.25;5002312;28;20018;-41
2022/04/10 04:42:48;;;;;;;34.20;13.27;;;;;;;0.07;100.00;101903.31;5002119;28;20026;-41
2022/04/10 04:45:13;;;;;;;34.75;13.20;;;;;;;0.07;100.00;101908.56;5002358;28;20148;-41
2022/04/10 04:47:39;;;;;;;33.78;13.95;;;;;;;0.06;100.00;101913.88;4998251;28;20448;-41
2022/04/10 04:50:06;;;;;;;41.95;13.90;;;;;;;0.04;100.00;101908.69;5005850;28;20041;-41
2022/04/10 04:52:32;;;;;;;37.22;13.07;;;;;;;0.06;100.00;101906.00;5020521;28;20040;-41
2022/04/10 04:54:57;;;;;;;43.08;15.75;;;;;;;0.07;100.00;101916.44;5022283;28;20021;-42
2022/04/10 04:57:22;;;;;;;36.75;16.65;;;;;;;0.05;100.00;101914.81;5022595;28;20384;-41
2022/04/10 04:59:47;;;;;;;43.60;17.40;;;;;;;0.05;100.00;101912.16;5021879;28;20539;-43
2022/04/10 05:02:16;;;;;;;45.50;16.83;;;;;;;0.05;100.00;101914.81;5022515;28;20033;-41
2022/04/10 05:04:41;;;;;;;37.30;17.25;;;;;;;0.03;100.00;101921.91;5019193;28;20493;-41
2022/04/10 05:07:06;;;;;;;43.95;15.48;;;;;;;0.05;100.00;101922.69;5021794;28;20108;-40
2022/04/10 05:09:32;;;;;;;33.58;15.73;;;;;;;0.05;100.00;101927.94;5022766;28;20037;-40
2022/04/10 05:11:57;;;;;;;40.38;16.10;;;;;;;0.05;100.00;101930.56;5021013;28;20424;-41
2022/04/10 05:14:25;;;;;;;32.63;16.15;;;;;;;0.04;100.00;101931.50;5021894;28;20029;-41
2022/04/10 05:16:50;;;;;;;38.13;15.57;;;;;;;0.08;100.00;101927.81;5021897;28;20025;-43
2022/04/10 05:19:16;;;;;;;32.95;16.20;;;;;;;0.09;100.00;101934.78;5020208;28;20524;-42
2022/04/10 05:21:42;;;;;;;35.08;15.82;;;;;;;0.12;100.00;101939.88;5021814;28;20035;-45
2022/04/10 05:24:07;;;;;;;34.78;16.38;;;;;;;0.15;100.00;101934.50;5021937;28;20044;-42
2022/04/10 05:26:32;;;;;;;44.00;16.67;;;;;;;0.17;100.00;101937.91;5017854;28;20021;-44
2022/04/10 05:28:58;;;;;;;43.90;16.30;;;;;;;0.22;100.00;101943.84;5021859;28;20097;-42
2022/04/10 05:31:24;;;;;;;36.67;15.75;;;;;;;0.24;100.00;101938.47;5021820;28;20855;-42
2022/04/10 05:33:49;;;;;;;34.03;14.60;;;;;;;0.27;100.00;101952.38;5019872;28;20029;-41
2022/04/10 05:36:14;;;;;;;26.52;14.43;;;;;;;0.34;100.00;101948.53;5021268;28;20337;-42
2022/04/10 05:38:40;;;;;;;36.88;14.18;;;;;;;0.40;100.00;101957.06;5021720;28;20021;-40
2022/04/10 05:41:05;;;;;;;39.33;13.95;;;;;;;0.43;100.00;101957.78;5021745;28;20112;-41
2022/04/10 05:43:30;;;;;;;31.88;14.48;;;;;;;0.51;100.00;101960.06;5022309;28;20040;-43
2022/04/10 05:45:56;;;;;;;34.60;13.38;;;;;;;0.59;100.00;101962.34;5022017;28;20029;-42
2022/04/10 05:48:21;;;;;;;46.63;14.07;;;;;;;0.70;100.00;101962.75;5019055;28;20349;-43
2022/04/10 05:50:47;;;;;;;34.30;13.45;;;;;;;0.82;100.00;101971.84;5020979;28;20103;-41
2022/04/10 05:53:12;;;;;;;36.78;13.45;;;;;;;0.90;100.00;101970.56;5021041;28;20063;-41
2022/04/10 05:55:37;;;;;;;31.55;13.80;;;;;;;0.98;100.00;101970.19;5021326;28;20053;-41
2022/04/10 05:58:03;;;;;;;27.75;12.40;;;;;;;1.01;100.00;101975.31;5021679;28;20021;-42
2022/04/10 06:00:28;;;;;;;30.08;12.90;;;;;;;1.01;100.00;101974.47;5022208;28;20426;-42
2022/04/10 06:02:54;;;;;;;33.75;12.52;;;;;;;1.04;100.00;101976.97;5018941;28;20055;-42
2022/04/10 06:05:20;;;;;;;31.00;12.57;;;;;;;1.06;100.00;101994.38;5021624;28;20140;-42
2022/04/10 06:07:46;;;;;;;30.52;11.70;;;;;;;1.13;100.00;101991.47;5019903;28;20029;-42
2022/04/10 06:10:11;;;;;;;30.23;12.13;;;;;;;1.18;100.00;101986.84;5020397;28;20030;-44
2022/04/10 06:12:37;;;;;;;27.58;11.93;;;;;;;1.23;100.00;101985.69;5020353;28;20039;-42
2022/04/10 06:15:03;;;;;;;38.05;12.45;;;;;;;1.32;100.00;101999.34;5021448;28;20389;-42
2022/04/10 06:17:30;;;;;;;35.95;13.30;;;;;;;1.40;100.00;102000.69;5019078;28;20449;-41
2022/04/10 06:19:55;;;;;;;28.75;12.07;;;;;;;1.51;100.00;102008.09;5020333;28;20080;-42
2022/04/10 06:22:21;;;;;;;33.60;12.27;;;;;;;1.60;100.00;102010.25;5020281;28;20064;-41
2022/04/10 06:24:46;;;;;;;37.05;12.02;;;;;;;1.67;100.00;102014.28;5021144;28;20107;-42
2022/04/10 06:27:11;;;;;;;32.45;12.32;;;;;;;1.75;100.00;102013.94;5020693;28;20366;-43
2022/04/10 06:29:37;;;;;;;30.25;11.80;;;;;;;1.83;100.00;102017.06;5017973;28;20030;-42
2022/04/10 06:32:03;;;;;;;28.95;11.90;;;;;;;1.91;100.00;102018.44;5020758;28;20029;-43
2022/04/10 06:34:28;;;;;;;31.02;11.27;;;;;;;2.01;100.00;102014.41;5019335;28;20037;-41
2022/04/10 06:36:53;;;;;;;28.35;11.27;;;;;;;2.09;100.00;102022.81;5020320;28;20927;-41
2022/04/10 06:39:18;;;;;;;32.47;11.75;;;;;;;2.18;100.00;102024.13;5020421;28;20159;-41
2022/04/10 06:41:44;;;;;;;30.80;12.70;;;;;;;2.28;100.00;102033.25;4994069;28;20022;-44
2022/04/10 06:44:10;;;;;;;27.95;12.70;;;;;;;2.37;100.00;102027.50;5000479;28;20511;-43
2022/04/10 06:46:35;;;;;;;33.63;11.50;;;;;;;2.48;100.00;102037.53;5000130;28;20032;-42
2022/04/10 06:49:01;;;;;;;34.80;13.05;;;;;;;2.59;100.00;102032.53;4998716;28;20045;-42
2022/04/10 06:51:26;;;;;;;31.38;11.32;;;;;;;2.71;100.00;102031.03;5004026;28;20220;-41
2022/04/10 06:53:52;;;;;;;32.40;11.00;;;;;;;2.85;100.00;102035.59;5002049;28;20036;-41
2022/04/10 06:56:17;;;;;;;29.10;11.07;;;;;;;3.00;100.00;102036.53;5020184;28;20029;-41
2022/04/10 06:58:43;;;;;;;25.05;10.18;;;;;;;3.17;100.00;102041.78;5018686;28;20144;-42
2022/04/10 07:01:08;;;;;;;26.67;10.70;;;;;;;3.32;100.00;102042.69;5018305;28;20107;-41
2022/04/10 07:03:34;;;;;;;23.20;9.90;;;;;;;3.48;100.00;102050.66;5016004;28;20503;-41
2022/04/10 07:05:59;;;;;;;28.90;10.00;;;;;;;3.64;100.00;102047.16;5018496;28;20531;-42
2022/04/10 07:08:25;;;;;;;28.10;9.10;;;;;;;3.78;100.00;102047.22;5018462;28;20511;-43
2022/04/10 07:10:50;;;;;;;24.42;8.43;;;;;;;3.93;100.00;102048.97;5017694;28;20049;-44
2022/04/10 07:13:17;;;;;;;23.33;8.70;;;;;;;4.09;100.00;102048.09;5016427;28;20052;-44
2022/04/10 07:15:43;;;;;;;28.80;7.60;;;;;;;4.24;100.00;102055.16;5017778;28;20483;-41
2022/04/10 07:18:08;;;;;;;21.15;7.40;;;;;;;4.38;100.00;102058.75;5015894;28;20068;-41
2022/04/10 07:20:33;;;;;;;22.40;7.13;;;;;;;4.53;100.00;102054.34;5017428;28;20421;-42
2022/04/10 07:25:42;;;;;;;21.77;7.10;;;;;;;4.85;100.00;102060.31;5018378;28;20079;-44
2022/04/10 07:28:08;;;;;;;26.15;6.60;;;;;;;4.98;100.00;102058.63;5017810;28;20093;-41
2022/04/10 07:30:33;;;;;;;22.23;6.35;;;;;;;5.11;100.00;102060.50;5018822;28;20021;-41
2022/04/10 07:32:58;;;;;;;23.17;5.50;;;;;;;5.32;100.00;102068.94;5015788;28;20029;-43
2022/04/10 07:35:27;;;;;;;19.40;5.93;;;;;;;5.43;100.00;102077.03;5017208;28;20028;-43
2022/04/10 07:37:52;;;;;;;21.10;5.63;;;;;;;5.54;100.00;102077.22;5016114;28;20025;-44
2022/04/10 07:40:21;;;;;;;21.23;5.40;;;;;;;5.64;100.00;102082.78;5019556;28;20021;-42
2022/04/10 07:42:46;;;;;;;15.35;4.70;;;;;;;5.72;100.00;102087.56;5016210;28;20120;-44
2022/04/10 07:47:25;;;;;;;18.83;6.00;;;;;;;5.88;100.00;102084.78;5017399;28;20412;-43
2022/04/10 07:47:59;;;;;;;31.10;6.05;;;;;;;6.06;100.00;102088.06;5011498;28;20567;-43
2022/04/10 07:50:25;;;;;;;23.80;5.03;;;;;;;6.20;100.00;102097.78;5013453;28;20148;-41
2022/04/10 07:52:50;;;;;;;14.93;5.13;;;;;;;6.39;100.00;102089.44;5017279;28;20126;-43
2022/04/10 07:55:15;;;;;;;19.13;5.72;;;;;;;6.56;100.00;102094.44;5016212;28;20473;-41
2022/04/10 07:57:41;;;;;;;19.92;5.93;;;;;;;6.63;100.00;102101.03;5015535;28;20022;-45
2022/04/10 08:00:06;;;;;;;20.35;5.38;;;;;;;6.67;100.00;102109.63;5015077;28;20021;-43
2022/04/10 08:02:32;;;;;;;22.55;5.18;;;;;;;6.72;100.00;102112.81;5018390;28;20407;-46
2022/04/10 08:04:57;;;;;;;19.95;5.47;;;;;;;6.73;100.00;102114.53;5015110;28;20495;-42
2022/04/10 08:07:23;;;;;;;20.42;3.65;;;;;;;6.78;99.59;102116.88;5020449;28;20370;-43
2022/04/10 08:09:48;;;;;;;19.50;3.83;;;;;;;6.73;99.51;102120.69;5017751;28;20392;-42
2022/04/10 08:12:13;;;;;;;13.20;3.88;;;;;;;6.62;100.00;102136.50;5022500;28;20112;-44
2022/04/10 08:14:39;;;;;;;13.93;4.30;;;;;;;6.33;100.00;102138.44;5011005;28;20034;-42
2022/04/10 08:17:05;;;;;;;15.32;3.95;;;;;;;6.14;100.00;102147.63;5017241;28;20542;-43
2022/04/10 08:19:30;;;;;;;16.65;4.35;;;;;;;6.19;100.00;102149.97;5016240;28;20558;-45
2022/04/10 08:21:55;;;;;;;16.10;3.67;;;;;;;6.27;100.00;102144.16;5016803;28;20034;-43
2022/04/10 08:24:21;;;;;;;19.08;4.10;;;;;;;6.47;100.00;102145.50;4999156;28;20018;-43
2022/04/10 08:26:46;;;;;;;11.50;3.90;;;;;;;6.68;100.00;102144.03;5017511;28;20032;-45
2022/04/10 08:29:11;;;;;;;14.10;3.67;;;;;;;6.92;100.00;102148.63;5017063;28;20461;-46
2022/04/10 08:31:36;;;;;;;17.77;4.10;;;;;;;7.12;100.00;102146.44;4990870;28;20099;-43
2022/04/10 08:34:02;;;;;;;13.05;3.85;;;;;;;7.24;100.00;102149.06;5015395;28;20040;-43
2022/04/10 08:36:27;;;;;;;7.53;3.40;;;;;;;7.36;99.36;102152.69;5017583;28;20033;-44
2022/04/10 08:38:53;;;;;;;12.38;3.50;;;;;;;7.40;97.27;102148.88;5012108;28;20032;-42
2022/04/10 08:41:21;;;;;;;12.32;3.45;;;;;;;7.37;96.03;102151.72;5018584;28;20045;-42
2022/04/10 08:43:48;;;;;;;16.67;3.50;;;;;;;7.44;98.12;102144.19;5019412;28;20032;-43
2022/04/10 08:46:14;;;;;;;16.15;3.45;;;;;;;7.59;98.71;102145.75;5021257;28;20025;-45
2022/04/10 08:48:39;;;;;;;15.15;3.47;;;;;;;7.71;93.62;102146.69;5018752;28;20025;-42
2022/04/10 08:51:06;;;;;;;16.48;3.25;;;;;;;7.73;93.20;102152.72;5018833;28;20047;-41
2022/04/10 08:53:32;;;;;;;14.77;3.50;;;;;;;7.72;90.74;102155.50;5021572;28;20497;-42
2022/04/10 08:55:58;;;;;;;14.00;3.65;;;;;;;7.75;91.72;102148.13;5021493;28;20032;-43
2022/04/10 08:58:23;;;;;;;18.00;3.65;;;;;;;7.88;92.07;102147.28;5020971;28;20327;-44
2022/04/10 09:00:48;;;;;;;17.10;3.53;;;;;;;7.93;90.11;102158.44;5019575;28;20037;-43
2022/04/10 09:03:13;;;;;;;16.95;3.35;;;;;;;8.03;91.55;102159.47;5017119;28;20029;-45
2022/04/10 09:05:40;;;;;;;27.00;4.35;;;;;;;8.10;89.96;102158.03;5018669;28;20085;-43
2022/04/10 09:08:12;;;;;;;11.38;2.97;;;;;;;8.22;90.29;102154.47;5020044;28;20741;-44
2022/04/10 09:10:56;;;;;;;13.30;2.63;;;;;;;8.45;89.56;102161.72;5021566;28;20403;-44
2022/04/10 09:13:30;;;;;;;19.50;3.03;;;;;;;8.61;86.18;102159.63;5012831;28;20041;-44
2022/04/10 09:16:04;;;;;;;15.57;2.83;;;;;;;8.73;85.39;102160.50;5019886;28;20869;-44
2022/04/10 09:18:45;;;;;;;16.65;2.88;;;;;;;8.76;83.79;102163.78;5019732;28;20024;-42
2022/04/10 09:21:10;;;;;;;17.63;2.83;;;;;;;8.60;80.59;102163.25;5020794;28;20022;-45
2022/04/10 09:23:36;;;;;;;19.20;2.58;;;;;;;8.88;79.19;102156.69;5021251;28;20033;-44
2022/04/10 09:26:01;;;;;;;18.58;2.53;;;;;;;9.22;79.03;102153.22;5022178;28;20029;-44
2022/04/10 09:28:46;;;;;;;18.20;2.80;;;;;;;9.22;79.49;102154.06;5019579;28;20083;-43
2022/04/10 09:31:25;;;;;;;10.07;2.20;;;;;;;8.82;77.79;102166.94;5001877;28;20113;-46
2022/04/10 09:33:50;;;;;;;18.20;2.00;;;;;;;8.62;74.65;102158.66;5017340;28;20399;-42
2022/04/10 09:36:37;;;;;;;28.52;2.75;;;;;;;8.70;80.57;102155.41;5021069;28;20045;-42
2022/04/10 09:39:05;;;;;;;22.55;2.22;;;;;;;8.92;75.15;102160.78;5018758;28;20455;-44
2022/04/10 09:41:30;;;;;;;12.50;2.40;;;;;;;9.17;74.38;102158.91;5020372;28;20040;-41
2022/04/10 09:44:01;;;;;;;19.55;2.58;;;;;;;9.30;71.52;102161.44;5020165;28;20396;-43
2022/04/10 09:46:26;;;;;;;10.68;2.30;;;;;;;9.42;74.51;102160.50;5020867;28;20467;-42
2022/04/10 09:48:51;;;;;;;10.55;2.08;;;;;;;9.46;71.37;102164.59;5018740;28;20224;-43
2022/04/10 09:51:17;;;;;;;6.63;1.77;;;;;;;9.55;70.99;102162.19;5018995;28;20069;-43
2022/04/10 09:54:00;;;;;;;10.57;1.60;;;;;;;9.44;69.76;102158.56;5020221;28;20512;-40
2022/04/10 09:56:27;;;;;;;7.78;1.52;;;;;;;9.41;67.63;102152.63;5021235;28;20037;-41
2022/04/10 09:58:58;;;;;;;10.45;1.65;;;;;;;9.62;65.66;102158.06;5020425;28;20072;-41
2022/04/10 10:01:26;;;;;;;9.57;1.75;;;;;;;9.95;66.92;102157.16;5020914;28;20558;-41
2022/04/10 10:03:54;;;;;;;13.30;1.83;;;;;;;10.19;65.98;102162.31;5018229;28;20037;-44
2022/04/10 10:06:20;;;;;;;7.97;2.08;;;;;;;10.25;65.90;102168.97;5019628;28;20372;-42
2022/04/10 10:08:47;;;;;;;12.20;1.65;;;;;;;10.10;61.98;102163.09;5020020;28;20107;-41
2022/04/10 10:11:13;;;;;;;8.50;1.60;;;;;;;10.09;57.55;102169.38;5017416;28;20175;-42
2022/04/10 10:13:39;;;;;;;13.10;1.98;;;;;;;10.04;61.12;102158.25;5013887;28;20097;-43
2022/04/10 10:16:06;;;;;;;12.40;1.92;;;;;;;10.18;64.84;102162.44;5019451;28;20040;-44
2022/04/10 10:18:32;;;;;;;6.95;1.77;;;;;;;10.39;61.63;102160.72;5018739;28;20041;-43
2022/04/10 10:20:58;;;;;;;17.45;2.30;;;;;;;10.57;63.67;102157.47;5019408;28;20034;-41
2022/04/10 10:23:24;;;;;;;5.78;1.55;;;;;;;10.57;62.41;102157.47;5020214;28;20083;-41
2022/04/10 10:25:52;;;;;;;6.43;1.85;;;;;;;10.37;61.93;102151.13;5019395;28;20535;-41
2022/04/10 10:28:17;;;;;;;8.98;1.92;;;;;;;10.36;60.33;102149.44;4996508;28;20041;-42
2022/04/10 10:31:04;;;;;;;10.70;2.50;;;;;;;10.45;61.03;102141.50;5018965;28;20105;-44
2022/04/10 10:33:30;;;;;;;13.40;2.35;;;;;;;10.58;60.38;102145.81;5016497;28;20276;-42
2022/04/10 10:35:58;;;;;;;12.60;2.63;;;;;;;10.62;60.93;102141.91;5018621;28;20029;-44
2022/04/10 10:38:25;;;;;;;8.93;2.00;;;;;;;10.89;57.78;102146.72;5011104;28;20120;-45
2022/04/10 10:40:52;;;;;;;9.77;1.75;;;;;;;11.07;57.22;102143.47;5021569;28;20175;-43
2022/04/10 10:43:27;;;;;;;5.30;1.92;;;;;;;11.30;54.79;102145.00;5017716;28;20106;-46
2022/04/10 10:45:52;;;;;;;11.10;1.58;;;;;;;11.34;54.58;102157.09;5018092;28;20045;-44
2022/04/10 10:48:43;;;;;;;9.52;1.70;;;;;;;11.19;56.80;102150.41;5014956;28;20484;-44
2022/04/10 10:51:09;;;;;;;8.60;1.63;;;;;;;11.00;57.77;102154.69;5014577;28;20135;-43
2022/04/10 10:53:45;;;;;;;12.00;2.30;;;;;;;11.13;57.10;102153.63;5016335;28;20033;-43
2022/04/10 10:56:21;;;;;;;10.70;2.00;;;;;;;11.22;55.87;102154.63;5016506;28;20383;-46
2022/04/10 10:58:48;;;;;;;7.22;2.05;;;;;;;11.11;58.08;102153.75;5017155;28;20547;-47
2022/04/10 11:01:25;;;;;;;12.05;2.28;;;;;;;10.82;58.87;102150.91;5014190;28;20433;-42
2022/04/10 11:04:01;;;;;;;9.32;2.20;;;;;;;10.89;58.34;102144.03;5015375;28;20437;-44
2022/04/10 11:06:33;;;;;;;9.35;1.80;;;;;;;11.16;59.03;102142.66;5016415;28;20033;-42
2022/04/10 11:09:17;;;;;;;;;;;;;;;11.41;54.57;102133.34;5014488;28;20449;-43
2022/04/10 11:11:42;;;;;;;6.20;1.75;;;;;;;11.06;55.64;102142.59;5017335;28;19960;-45
2022/04/10 11:14:31;;;;;;;5.53;1.67;;;;;;;10.72;55.92;102152.66;5018852;28;20316;-44
2022/04/10 11:17:13;;;;;;;11.02;1.90;;;;;;;10.43;57.49;102142.59;5017573;28;20103;-42